Airfield :
LOGIN :

Register | Disclaimer

   EN    FR    IT 

 










Legend :    VFR   Marginal VFR   IFR   Intensive IFR   Very Intensive IFR
Visi :
Ceiling :
>= 8 km
>= 3000ft
5 to 8 km
1000 to 3000 ft
1500m to 5 km
500 to 1000 ft
800 to 1500m
200 to 500 ft
< 800m
< 200 ft
Symbols :   Thunderstorms  Fog  Heavy snow  Heavy precipitations  Wind > 20 kt
SIGMETs :     Misc.  Thunderstorms  Icing  Turbulence  Mountain Waves  Volcanic Ashes






- Airport Elevation : 1213 ft
- IATA code : SCQ


LEST - Santiago de Compostela

CURRENT METAR :
  • 210800Z 19003KT 160V250 9999 FEW020 SCT025TCU 06/06 Q1004 RESHRA TEMPO BKN020CB

EXPIRED METARs :
  • 210730Z 22003KT 180V280 6000 SHRA FEW017 SCT025TCU 07/06 Q1004 TEMPO BKN020CB
  • 210700Z 20003KT 160V240 9999 -SHRA FEW017 SCT025TCU 06/06 Q1004 TEMPO SHRA BKN020CB
  • 210630Z 24004KT 170V300 9999 FEW015 SCT025TCU 07/05 Q1004 TEMPO SHRA BKN020CB
  • 210600Z 21004KT 160V260 9000 SCT012 SCT025TCU 07/06 Q1004 TEMPO SHRA BKN020CB
  • 210530Z 21003KT 170V250 6000 -SHRA SCT012 SCT025TCU BKN045 07/06 Q1004 TEMPO SHRA BKN020CB

TAF TAF LEST
Valid from the 21 at 06:00 until the 22 at 06:00 UTC


210500Z 2106/2206 20009KT 9000 SCT020 BKN035 TX10/2113Z TN05/2206Z
TEMPO 2106/2110 3000 BR BKN010
PROB40
TEMPO 2106/2108 0800 -RA BCFG BKN005
PROB30
TEMPO 2106/2124 SHRA SCT030TCU
TEMPO 2200/2206 3000 RA BKN010



MET'MAP, your aeronautical weather chart ! - Copyright ORBIFLY December 2007 - Disclaimer

ORBIFLY MET'MAP TEAM :

Programming & Development : Alexandra Zaïnal
Concept & Development : Baudouin d'Aumeries
Co-Development & Prog : Marc-Olivier Méhu
Technical & hardware support : Manuel Goepfert

Contact : metmap@orbifly.com




SOURCES & CREDITS :

   NOAA